Time;durP1;ratioP1;P1;durP2;ratioP2;P2;SDS_P1;SDS_P2;PMS_P1;PMS_P2;Temp;Humidity;BMP_temperature;BMP_pressure;BME280_temperature;BME280_humidity;BME280_pressure;Samples;Min_cycle;Max_cycle;Signal;HPM_P1;HPM_P2
2021/10/18 00:01:35;;;;;;;96.97;68.72;;;;;;;12.01;100.00;101886.06;4944629;29;20122;-78
2021/10/18 00:04:21;;;;;;;91.13;61.80;;;;;;;11.92;100.00;101883.50;4945910;29;20476;-78
2021/10/18 00:07:06;;;;;;;84.35;60.65;;;;;;;11.85;100.00;101881.75;4959802;28;20189;-77
2021/10/18 00:09:52;;;;;;;89.40;63.55;;;;;;;11.74;100.00;101883.53;4959423;28;20190;-77
2021/10/18 00:12:38;;;;;;;81.28;55.47;;;;;;;11.43;100.00;101879.25;4960400;28;20058;-77
2021/10/18 00:15:24;;;;;;;79.55;57.05;;;;;;;11.61;100.00;101879.22;4960887;28;20055;-77
2021/10/18 00:18:10;;;;;;;82.70;58.45;;;;;;;11.75;100.00;101881.81;4960050;28;20027;-78
2021/10/18 00:20:56;;;;;;;84.72;58.63;;;;;;;11.81;100.00;101887.06;4944967;29;20027;-77
2021/10/18 00:23:42;;;;;;;90.10;58.20;;;;;;;11.61;100.00;101883.63;4945182;29;20031;-77
2021/10/18 00:26:28;;;;;;;77.45;54.28;;;;;;;11.96;100.00;101887.84;4959329;28;20046;-78
2021/10/18 00:29:13;;;;;;;82.22;57.20;;;;;;;11.59;100.00;101874.81;4945660;29;20133;-78
2021/10/18 00:31:59;;;;;;;81.22;57.95;;;;;;;11.73;100.00;101876.56;4945653;28;20369;-78
2021/10/18 00:34:45;;;;;;;78.30;55.22;;;;;;;11.29;100.00;101880.16;4960140;28;20110;-77
2021/10/18 00:37:31;;;;;;;88.15;59.22;;;;;;;11.45;100.00;101881.88;4959464;28;20444;-78
2021/10/18 00:40:17;;;;;;;83.55;56.50;;;;;;;11.42;100.00;101874.91;4944939;29;20531;-78
2021/10/18 00:43:03;;;;;;;82.55;57.42;;;;;;;11.43;100.00;101875.75;4944695;29;20110;-77
2021/10/18 00:45:49;;;;;;;75.43;53.40;;;;;;;11.55;100.00;101871.34;4959851;28;20424;-77
2021/10/18 00:48:34;;;;;;;84.25;57.40;;;;;;;11.48;100.00;101874.88;4959400;28;20059;-78
2021/10/18 00:51:22;;;;;;;81.90;55.67;;;;;;;11.51;100.00;101877.50;4959335;28;20524;-78
2021/10/18 00:54:08;;;;;;;80.57;55.92;;;;;;;11.41;100.00;101862.63;4958573;28;20093;-78
2021/10/18 00:56:54;;;;;;;84.18;57.17;;;;;;;11.71;100.00;101870.47;4957623;29;20325;-77
2021/10/18 00:59:40;;;;;;;76.82;54.28;;;;;;;11.62;100.00;101865.22;4944328;29;20129;-77
2021/10/18 01:02:27;;;;;;;78.50;53.28;;;;;;;11.74;100.00;101856.44;4961385;28;20024;-77
2021/10/18 01:05:14;;;;;;;75.20;53.83;;;;;;;11.62;100.00;101862.59;4960584;28;20372;-78
2021/10/18 01:08:00;;;;;;;75.38;54.38;;;;;;;11.67;100.00;101860.84;4944572;28;20041;-77
2021/10/18 01:10:46;;;;;;;93.55;58.50;;;;;;;11.71;100.00;101851.19;4959816;28;20490;-77
2021/10/18 01:13:32;;;;;;;79.68;52.67;;;;;;;11.61;100.00;101860.84;4943928;28;20081;-76
2021/10/18 01:16:18;;;;;;;75.03;50.33;;;;;;;11.65;100.00;101854.72;4960043;28;20135;-78
2021/10/18 01:19:21;;;;;;;65.18;45.80;;;;;;;11.74;100.00;101853.81;4959322;28;20031;-77
2021/10/18 01:22:07;;;;;;;71.85;49.42;;;;;;;11.70;100.00;101859.97;4959619;28;20093;-77
2021/10/18 01:24:53;;;;;;;68.03;45.90;;;;;;;11.46;100.00;101850.41;4943997;29;20452;-77
2021/10/18 01:27:39;;;;;;;69.90;45.17;;;;;;;11.22;100.00;101853.06;4959511;28;20345;-77
2021/10/18 01:30:26;;;;;;;65.38;46.72;;;;;;;11.46;100.00;101866.13;4958927;28;20046;-77
2021/10/18 01:33:12;;;;;;;69.70;47.83;;;;;;;11.63;100.00;101855.59;4943775;29;20027;-78
2021/10/18 01:35:58;;;;;;;66.57;47.15;;;;;;;11.55;100.00;101859.97;4958450;28;20101;-77
2021/10/18 01:38:44;;;;;;;69.15;47.00;;;;;;;11.85;100.00;101855.50;4944009;28;20058;-78
2021/10/18 01:41:30;;;;;;;65.20;47.78;;;;;;;11.65;100.00;101859.09;4943888;29;20024;-78
2021/10/18 01:44:16;;;;;;;76.15;50.33;;;;;;;11.95;100.00;101851.09;4957626;28;20452;-78
2021/10/18 01:47:02;;;;;;;72.50;50.60;;;;;;;12.08;100.00;101851.00;4958497;28;20037;-77
2021/10/18 01:49:48;;;;;;;67.10;47.80;;;;;;;11.81;100.00;101858.16;4943441;29;20098;-78
2021/10/18 01:52:34;;;;;;;66.18;48.47;;;;;;;11.81;100.00;101866.03;4931598;28;20041;-77
2021/10/18 01:55:21;;;;;;;72.68;51.58;;;;;;;12.13;100.00;101856.25;4957627;28;20027;-78
2021/10/18 01:58:08;;;;;;;64.25;46.67;;;;;;;12.05;100.00;101855.44;4958177;28;20031;-77
2021/10/18 02:00:54;;;;;;;63.72;46.78;;;;;;;12.13;100.00;101857.09;4930614;29;20027;-76
2021/10/18 02:03:40;;;;;;;68.50;46.22;;;;;;;12.07;100.00;101857.16;4958445;28;20345;-77
2021/10/18 02:06:26;;;;;;;65.32;44.80;;;;;;;12.18;100.00;101857.94;4943337;29;20028;-78
2021/10/18 02:09:11;;;;;;;71.93;47.97;;;;;;;11.87;100.00;101861.63;4942887;29;20039;-77
2021/10/18 02:11:57;;;;;;;76.40;48.85;;;;;;;11.58;100.00;101860.81;4944251;28;20460;-77
2021/10/18 02:14:43;;;;;;;67.25;45.28;;;;;;;12.03;100.00;101857.16;4957414;28;20430;-77
2021/10/18 02:17:28;;;;;;;64.47;44.72;;;;;;;12.20;100.00;101850.94;4943016;29;20031;-77
2021/10/18 02:20:15;;;;;;;65.68;44.95;;;;;;;12.19;100.00;101851.84;4957407;28;20024;-77
2021/10/18 02:23:00;;;;;;;69.72;45.47;;;;;;;12.21;100.00;101849.16;4956722;28;20448;-77
2021/10/18 02:25:46;;;;;;;65.00;45.15;;;;;;;12.22;100.00;101854.41;4956801;28;20440;-78
2021/10/18 02:28:32;;;;;;;66.90;45.88;;;;;;;12.30;100.00;101852.63;4957951;28;20118;-77
2021/10/18 02:31:18;;;;;;;65.07;44.63;;;;;;;11.98;100.00;101856.31;4956815;28;20031;-77
2021/10/18 02:34:04;;;;;;;61.35;41.80;;;;;;;12.10;100.00;101861.50;4956925;28;20035;-78
2021/10/18 02:36:50;;;;;;;64.40;42.35;;;;;;;11.66;100.00;101855.59;4957924;28;20027;-77
2021/10/18 02:39:36;;;;;;;64.07;44.05;;;;;;;11.95;100.00;101865.09;4957990;28;20031;-78
2021/10/18 02:42:21;;;;;;;62.85;44.67;;;;;;;11.85;100.00;101858.13;4958078;28;20027;-77
2021/10/18 02:45:08;;;;;;;60.17;42.05;;;;;;;11.82;100.00;101857.28;4960019;28;20039;-76
2021/10/18 02:47:54;;;;;;;67.60;46.95;;;;;;;12.03;100.00;101852.81;4958523;28;20417;-77
2021/10/18 02:50:39;;;;;;;68.38;46.15;;;;;;;12.04;100.00;101843.16;4944213;28;20110;-77
2021/10/18 02:53:25;;;;;;;63.97;40.83;;;;;;;11.69;100.00;101861.69;4957735;28;20035;-77
2021/10/18 02:56:11;;;;;;;62.08;44.42;;;;;;;11.84;100.00;101861.63;4957666;28;20460;-78
2021/10/18 02:58:57;;;;;;;58.22;40.83;;;;;;;11.38;100.00;101862.66;4957746;28;20449;-77
2021/10/18 03:01:43;;;;;;;65.10;44.55;;;;;;;11.71;100.00;101865.22;4957627;28;20113;-77
2021/10/18 03:04:28;;;;;;;63.40;42.97;;;;;;;11.98;100.00;101864.22;4957406;28;20110;-77
2021/10/18 03:07:14;;;;;;;64.78;43.20;;;;;;;11.65;100.00;101862.59;4956985;28;20035;-77
2021/10/18 03:10:00;;;;;;;60.08;40.90;;;;;;;11.79;100.00;101857.28;4956670;28;20048;-78
2021/10/18 03:12:45;;;;;;;58.95;41.90;;;;;;;11.69;100.00;101866.94;4959054;28;20062;-77
2021/10/18 03:15:31;;;;;;;69.85;44.13;;;;;;;12.03;100.00;101859.78;4958323;28;20106;-77
2021/10/18 03:18:17;;;;;;;59.47;40.00;;;;;;;11.78;100.00;101858.19;4958123;28;20066;-78
2021/10/18 03:21:03;;;;;;;61.97;40.88;;;;;;;11.84;100.00;101860.75;4957565;28;20036;-77
2021/10/18 03:23:49;;;;;;;61.88;42.25;;;;;;;12.07;100.00;101864.16;4957443;28;20031;-78
2021/10/18 03:26:35;;;;;;;55.47;39.28;;;;;;;12.20;100.00;101856.19;4941865;29;20027;-76
2021/10/18 03:29:21;;;;;;;62.53;43.53;;;;;;;12.13;100.00;101859.72;4957334;29;20055;-78
2021/10/18 03:32:07;;;;;;;64.10;43.60;;;;;;;12.07;100.00;101854.53;4958040;28;20349;-78
2021/10/18 03:34:52;;;;;;;60.42;42.03;;;;;;;12.41;100.00;101863.94;4956453;28;20035;-78
2021/10/18 03:37:38;;;;;;;61.35;39.90;;;;;;;12.23;100.00;101852.69;4946019;29;20147;-78
2021/10/18 03:40:24;;;;;;;64.40;42.88;;;;;;;11.94;100.00;101857.22;4960027;28;20031;-78
2021/10/18 03:43:10;;;;;;;67.13;41.78;;;;;;;12.20;100.00;101856.19;4961162;28;20035;-77
2021/10/18 03:45:56;;;;;;;66.45;42.00;;;;;;;12.06;100.00;101852.75;4960355;28;20472;-78
2021/10/18 03:48:41;;;;;;;59.63;40.97;;;;;;;12.15;100.00;101862.34;4961266;28;20027;-78
2021/10/18 03:51:27;;;;;;;65.57;44.03;;;;;;;12.03;100.00;101859.78;4945974;29;20027;-78
2021/10/18 03:54:13;;;;;;;64.95;42.92;;;;;;;12.27;100.00;101852.66;4960785;28;20027;-77
2021/10/18 03:56:59;;;;;;;56.90;39.95;;;;;;;12.06;100.00;101860.63;4961047;28;20027;-77
2021/10/18 03:59:45;;;;;;;66.95;40.85;;;;;;;12.09;100.00;101857.16;4946630;29;20046;-77
2021/10/18 04:02:30;;;;;;;63.90;40.58;;;;;;;12.21;100.00;101863.19;4946415;28;20453;-78
2021/10/18 04:05:16;;;;;;;57.15;39.10;;;;;;;12.35;100.00;101869.25;4947725;28;20064;-78
2021/10/18 04:08:02;;;;;;;63.72;40.97;;;;;;;12.43;100.00;101869.19;4958511;29;20436;-78
2021/10/18 04:10:48;;;;;;;64.40;42.50;;;;;;;12.07;100.00;101864.16;4959305;28;20085;-78
2021/10/18 04:13:34;;;;;;;60.38;41.15;;;;;;;12.54;100.00;101868.22;4946937;28;20045;-78
2021/10/18 04:16:19;;;;;;;55.58;38.60;;;;;;;12.51;100.00;101872.63;4945409;29;20046;-78
2021/10/18 04:19:05;;;;;;;55.58;37.25;;;;;;;12.70;100.00;101859.34;4946926;28;20118;-78
2021/10/18 04:21:51;;;;;;;58.25;38.75;;;;;;;12.84;100.00;101864.47;4959099;29;20098;-77
2021/10/18 04:24:37;;;;;;;54.15;38.63;;;;;;;12.67;100.00;101869.00;4960494;28;20042;-78
2021/10/18 04:27:22;;;;;;;54.95;38.67;;;;;;;12.62;100.00;101858.53;4960313;28;20031;-77
2021/10/18 04:30:09;;;;;;;60.03;39.95;;;;;;;12.64;100.00;101872.53;4960531;28;20045;-78
2021/10/18 04:32:56;;;;;;;57.80;40.00;;;;;;;12.62;100.00;101870.81;4944797;29;20031;-77
2021/10/18 04:35:42;;;;;;;62.70;42.60;;;;;;;12.75;100.00;101868.09;4960035;28;20035;-78
2021/10/18 04:38:30;;;;;;;62.38;42.55;;;;;;;12.78;100.00;101873.28;4958374;29;20027;-78
2021/10/18 04:41:17;;;;;;;57.97;39.65;;;;;;;12.99;100.00;101880.19;4959717;28;20072;-78
2021/10/18 04:44:02;;;;;;;60.95;41.45;;;;;;;12.83;100.00;101870.63;4945528;28;20372;-78
2021/10/18 04:46:48;;;;;;;66.13;42.38;;;;;;;12.97;100.00;101877.56;4959555;28;20129;-77
2021/10/18 04:49:34;;;;;;;66.68;43.55;;;;;;;13.07;100.00;101886.25;4945293;28;20028;-73
2021/10/18 04:52:20;;;;;;;65.80;45.83;;;;;;;12.97;100.00;101882.81;4945058;29;20038;-73
2021/10/18 04:55:06;;;;;;;79.18;48.40;;;;;;;12.88;100.00;101889.88;4946117;28;20038;-72
2021/10/18 04:57:54;;;;;;;67.20;44.75;;;;;;;13.10;100.00;101887.06;4959788;28;20073;-73
2021/10/18 05:00:44;;;;;;;77.35;45.33;;;;;;;12.96;100.00;101883.69;4960535;28;20093;-73
2021/10/18 05:03:30;;;;;;;74.95;47.15;;;;;;;13.11;100.00;101891.44;4958274;29;20364;-73
2021/10/18 05:06:15;;;;;;;65.00;44.78;;;;;;;13.34;100.00;101889.47;4959004;28;20038;-72
2021/10/18 05:09:01;;;;;;;70.55;45.58;;;;;;;13.24;100.00;101898.38;4959253;28;20429;-72
2021/10/18 05:11:47;;;;;;;66.72;43.72;;;;;;;13.51;100.00;101900.69;4944688;29;20042;-72
2021/10/18 05:14:32;;;;;;;72.40;45.72;;;;;;;13.47;100.00;101900.75;4944030;29;20035;-73
2021/10/18 05:17:18;;;;;;;70.05;45.15;;;;;;;13.34;100.00;101900.00;4944247;29;20130;-72
2021/10/18 05:20:05;;;;;;;65.85;44.35;;;;;;;13.64;100.00;101901.44;4958564;28;20429;-72
2021/10/18 05:22:50;;;;;;;61.38;43.38;;;;;;;13.74;100.00;101903.97;4945807;28;20528;-72
2021/10/18 05:25:36;;;;;;;62.25;42.65;;;;;;;13.77;100.00;101905.69;4958931;28;20038;-73
2021/10/18 05:28:22;;;;;;;66.13;42.20;;;;;;;13.83;100.00;101909.09;4958322;28;20031;-73
2021/10/18 05:31:08;;;;;;;63.45;40.88;;;;;;;13.88;100.00;101915.22;4958725;28;20031;-73
2021/10/18 05:33:54;;;;;;;56.22;40.20;;;;;;;13.92;100.00;101911.66;4957340;29;20132;-73
2021/10/18 05:36:39;;;;;;;61.53;42.17;;;;;;;13.62;100.00;101917.25;4944115;28;20027;-72
2021/10/18 05:39:25;;;;;;;56.95;39.72;;;;;;;13.86;100.00;101924.88;4957805;28;20039;-73
2021/10/18 05:42:11;;;;;;;48.83;35.08;;;;;;;14.02;100.00;101921.19;4958525;28;20157;-74
2021/10/18 05:44:57;;;;;;;49.70;36.30;;;;;;;14.03;100.00;101929.97;4957530;29;20019;-72
2021/10/18 05:47:50;;;;;;;48.85;36.20;;;;;;;14.09;100.00;101929.88;4958459;28;20038;-72
2021/10/18 05:50:40;;;;;;;46.80;33.67;;;;;;;14.14;100.00;101931.56;4943301;29;20023;-72
2021/10/18 05:53:26;;;;;;;48.03;35.22;;;;;;;14.11;100.00;101936.88;4957599;29;20038;-72
2021/10/18 05:56:11;;;;;;;49.35;34.40;;;;;;;14.09;100.00;101943.94;4958330;28;20038;-72
2021/10/18 05:58:58;;;;;;;50.10;34.30;;;;;;;14.21;100.00;101937.66;4957131;28;20026;-73
2021/10/18 06:01:45;;;;;;;49.25;34.47;;;;;;;14.36;100.00;101940.09;4956603;29;20456;-73
2021/10/18 06:04:30;;;;;;;57.88;35.28;;;;;;;14.36;100.00;101943.59;4958317;28;20043;-73
2021/10/18 06:07:16;;;;;;;53.63;35.25;;;;;;;14.27;100.00;101943.72;4957557;28;20034;-71
2021/10/18 06:10:03;;;;;;;49.58;34.20;;;;;;;14.46;100.00;101936.44;4958384;28;20054;-72
2021/10/18 06:12:48;;;;;;;52.03;33.58;;;;;;;14.50;100.00;101939.03;4957753;28;20538;-72
2021/10/18 06:15:35;;;;;;;49.95;33.63;;;;;;;14.19;100.00;101942.91;4957565;28;20035;-72
2021/10/18 06:18:20;;;;;;;49.28;32.58;;;;;;;14.50;100.00;101941.66;4958655;28;20035;-73
2021/10/18 06:21:06;;;;;;;48.80;33.38;;;;;;;14.38;100.00;101940.94;4958133;28;20160;-76
2021/10/18 06:23:52;;;;;;;46.35;33.33;;;;;;;14.77;100.00;101935.09;4943209;29;20038;-75
2021/10/18 06:26:38;;;;;;;54.10;34.53;;;;;;;14.63;100.00;101948.50;4943347;28;20122;-75
2021/10/18 06:29:25;;;;;;;54.15;33.30;;;;;;;14.86;100.00;101939.38;4958302;28;20375;-75
2021/10/18 06:32:11;;;;;;;46.72;31.05;;;;;;;14.39;100.00;101954.09;4956888;28;20103;-75
2021/10/18 06:34:57;;;;;;;45.85;31.75;;;;;;;14.60;100.00;101945.88;4958179;28;20031;-75
2021/10/18 06:37:43;;;;;;;47.80;32.10;;;;;;;14.71;100.00;101940.50;4944115;28;20353;-75
2021/10/18 06:40:28;;;;;;;47.40;31.40;;;;;;;14.57;100.00;101951.22;4957931;28;20073;-75
2021/10/18 06:43:15;;;;;;;43.60;29.83;;;;;;;15.23;100.00;101945.78;4958106;28;20519;-75
2021/10/18 06:46:00;;;;;;;44.90;31.13;;;;;;;15.39;100.00;101942.88;4943011;29;20038;-76
2021/10/18 06:48:46;;;;;;;47.30;33.28;;;;;;;15.42;100.00;101948.13;4944691;28;20099;-76
2021/10/18 06:51:33;;;;;;;40.80;28.67;;;;;;;15.63;100.00;101945.06;4958000;28;20027;-76
2021/10/18 06:54:20;;;;;;;43.10;29.17;;;;;;;15.56;100.00;101940.84;4943596;28;20066;-76
2021/10/18 06:57:07;;;;;;;47.22;28.73;;;;;;;15.72;100.00;101939.66;4943494;28;20098;-76
2021/10/18 06:59:52;;;;;;;39.72;28.42;;;;;;;15.94;100.00;101934.78;4957362;28;20118;-75
2021/10/18 07:02:38;;;;;;;44.63;29.27;;;;;;;15.74;100.00;101944.88;4956870;28;20476;-76
2021/10/18 07:05:24;;;;;;;42.67;28.38;;;;;;;15.54;100.00;101947.91;4957451;28;20035;-75
2021/10/18 07:08:09;;;;;;;39.72;27.48;;;;;;;15.28;100.00;101954.50;4944167;28;20114;-74
2021/10/18 07:10:55;;;;;;;41.05;28.15;;;;;;;14.95;100.00;101955.91;4959721;28;20130;-73
2021/10/18 07:13:41;;;;;;;43.10;27.80;;;;;;;15.54;100.00;101953.19;4961532;28;20478;-73
2021/10/18 07:16:29;;;;;;;40.22;26.58;;;;;;;15.62;100.00;101956.56;4961570;28;20430;-79
2021/10/18 07:19:16;;;;;;;40.72;25.27;;;;;;;15.56;100.00;101955.81;4960606;28;20063;-78
2021/10/18 07:22:01;;;;;;;37.78;25.13;;;;;;;15.90;100.00;101956.88;4962296;28;20031;-78
2021/10/18 07:24:47;;;;;;;34.83;25.00;;;;;;;15.69;100.00;101954.66;4961315;28;20132;-78
2021/10/18 07:27:33;;;;;;;35.92;26.23;;;;;;;15.86;100.00;101949.91;4961076;28;20037;-78
2021/10/18 07:30:19;;;;;;;39.40;27.77;;;;;;;15.96;100.00;101956.78;4960487;28;20106;-79
2021/10/18 07:33:05;;;;;;;38.00;26.90;;;;;;;16.33;100.00;101957.75;4960384;28;20031;-79
2021/10/18 07:35:51;;;;;;;44.50;27.63;;;;;;;15.51;100.00;101962.94;4960449;29;20363;-78
2021/10/18 07:38:39;;;;;;;41.10;28.10;;;;;;;15.40;100.00;101965.78;4963303;28;20075;-77
2021/10/18 07:41:25;;;;;;;37.28;26.55;;;;;;;14.83;100.00;101966.66;4961955;28;20460;-78
2021/10/18 07:44:11;;;;;;;41.38;26.00;;;;;;;14.88;100.00;101973.63;4961147;29;20035;-78
2021/10/18 07:46:59;;;;;;;36.47;26.25;;;;;;;14.43;100.00;101981.31;4960809;28;20042;-78
2021/10/18 07:49:45;;;;;;;37.42;25.95;;;;;;;14.40;100.00;101984.00;4960647;28;20043;-76
2021/10/18 07:52:31;;;;;;;32.65;24.90;;;;;;;15.28;100.00;101975.63;4946457;28;20038;-76
2021/10/18 07:55:18;;;;;;;36.85;25.73;;;;;;;14.59;100.00;101985.50;4945547;29;20046;-77
2021/10/18 07:58:04;;;;;;;38.33;25.45;;;;;;;15.40;100.00;101978.09;4945713;29;20038;-75
2021/10/18 08:00:50;;;;;;;38.90;25.98;;;;;;;15.07;100.00;101976.84;4960940;28;20038;-76
2021/10/18 08:03:36;;;;;;;33.65;24.23;;;;;;;15.68;100.00;101982.00;4945337;29;20067;-76
2021/10/18 08:06:21;;;;;;;32.90;23.75;;;;;;;15.92;100.00;101981.53;4945458;29;20031;-76
2021/10/18 08:09:09;;;;;;;36.60;26.67;;;;;;;16.13;100.00;101978.47;4960306;28;20379;-76
2021/10/18 08:11:55;;;;;;;32.83;24.98;;;;;;;15.77;100.00;101980.06;4958614;29;20106;-76
2021/10/18 08:14:41;;;;;;;34.45;24.58;;;;;;;16.38;100.00;101983.22;4958448;29;20059;-76
2021/10/18 08:17:27;;;;;;;29.67;22.88;;;;;;;15.89;100.00;101982.47;4945056;29;20035;-75
2021/10/18 08:20:13;;;;;;;32.72;22.85;;;;;;;15.58;100.00;101983.03;4944969;29;20038;-76
2021/10/18 08:22:59;;;;;;;30.13;22.80;;;;;;;15.88;100.00;101986.03;4959961;28;20023;-75
2021/10/18 08:25:44;;;;;;;31.88;24.30;;;;;;;16.56;100.00;101982.00;4958903;28;20034;-76
2021/10/18 08:28:31;;;;;;;41.63;29.70;;;;;;;16.30;100.00;101984.28;4960063;28;20035;-75
2021/10/18 08:31:17;;;;;;;34.38;24.42;;;;;;;16.35;100.00;101982.44;4946427;28;20031;-76
2021/10/18 08:34:02;;;;;;;32.90;24.67;;;;;;;16.27;100.00;101982.56;4959844;28;20027;-75
2021/10/18 08:36:48;;;;;;;32.67;23.73;;;;;;;16.69;100.00;101979.03;4944720;29;20357;-75
2021/10/18 08:42:44;;;;;;;34.20;25.70;;;;;;;16.20;100.00;101988.03;4960666;28;20039;-75
2021/10/18 08:45:30;;;;;;;33.20;25.40;;;;;;;16.21;100.00;101982.72;4960235;28;20031;-76
2021/10/18 08:48:16;;;;;;;34.35;25.02;;;;;;;16.28;100.00;101984.31;4959500;28;20361;-79
2021/10/18 08:51:01;;;;;;;35.72;25.27;;;;;;;16.46;100.00;101985.72;4959922;28;20034;-78
2021/10/18 08:53:48;;;;;;;31.95;25.27;;;;;;;16.72;100.00;101981.59;4959227;28;20412;-78
2021/10/18 08:56:34;;;;;;;39.35;24.70;;;;;;;16.27;100.00;101985.22;4959547;28;20023;-78
2021/10/18 08:59:20;;;;;;;31.88;22.60;;;;;;;16.38;100.00;101992.91;4944549;29;20097;-78
2021/10/18 09:02:05;;;;;;;32.95;24.08;;;;;;;16.65;100.00;101982.66;4944821;29;20035;-78
2021/10/18 09:04:51;;;;;;;31.35;23.30;;;;;;;16.76;100.00;101977.97;4959629;28;20101;-77
2021/10/18 09:07:38;;;;;;;32.28;23.17;;;;;;;16.93;100.00;101988.19;4945752;28;20034;-78
2021/10/18 09:10:24;;;;;;;34.22;25.42;;;;;;;16.54;100.00;101984.66;4958858;28;20063;-77
2021/10/18 09:13:12;;;;;;;33.50;25.52;;;;;;;16.43;100.00;101986.66;4958094;28;20372;-78
2021/10/18 09:15:58;;;;;;;35.60;26.02;;;;;;;16.16;100.00;101984.56;4959713;28;20046;-77
2021/10/18 09:18:56;;;;;;;37.55;27.42;;;;;;;16.50;100.00;101995.34;4945285;28;20123;-79
2021/10/18 09:21:57;;;;;;;33.95;26.10;;;;;;;16.66;100.00;101986.16;4945820;29;20037;-75
2021/10/18 09:24:43;;;;;;;40.00;27.50;;;;;;;16.03;100.00;101990.13;4944951;28;20023;-75
2021/10/18 09:27:28;;;;;;;36.88;26.67;;;;;;;15.69;100.00;101989.91;4944269;28;20109;-75
2021/10/18 09:30:34;;;;;;;33.47;25.23;;;;;;;16.23;100.00;101980.03;4944931;28;20083;-75
2021/10/18 09:33:29;;;;;;;35.00;25.90;;;;;;;16.09;100.00;101979.44;4942906;29;20055;-75
2021/10/18 09:36:21;;;;;;;32.90;25.90;;;;;;;16.22;100.00;101973.88;4957098;28;20035;-75
2021/10/18 09:39:30;;;;;;;36.08;27.75;;;;;;;16.48;100.00;101976.00;4957473;28;20031;-75
2021/10/18 09:42:18;;;;;;;38.35;27.17;;;;;;;16.34;100.00;101972.72;4944399;28;20031;-75
2021/10/18 10:51:21;;;;;;;35.78;25.65;;;;;;;16.71;100.00;101928.69;4956610;28;20023;-78
2021/10/18 10:54:07;;;;;;;36.60;26.80;;;;;;;16.44;100.00;101927.56;4957202;28;20432;-79
2021/10/18 10:57:01;;;;;;;39.47;26.92;;;;;;;16.30;100.00;101921.69;4955979;29;20034;-79
2021/10/18 10:59:52;;;;;;;34.83;25.08;;;;;;;16.45;100.00;101931.97;4956882;29;20067;-78
2021/10/18 11:02:38;;;;;;;34.58;25.95;;;;;;;16.65;100.00;101920.91;4957286;28;20027;-78
2021/10/18 11:05:27;;;;;;;33.42;24.80;;;;;;;16.69;100.00;101915.53;4943337;29;20073;-78
2021/10/18 11:08:54;;;;;;;34.22;23.52;;;;;;;16.13;100.00;101912.34;4957616;28;20034;-78
2021/10/18 11:11:40;;;;;;;30.75;22.58;;;;;;;15.95;100.00;101918.91;4957971;28;20031;-78
2021/10/18 11:14:26;;;;;;;33.13;21.65;;;;;;;16.53;100.00;101913.25;4942701;29;20027;-78
2021/10/18 11:17:15;;;;;;;29.05;21.05;;;;;;;16.31;100.00;101911.97;4957876;28;20042;-78
2021/10/18 11:20:14;;;;;;;32.83;22.58;;;;;;;16.28;100.00;101912.88;4956393;28;20405;-78
2021/10/18 11:23:01;;;;;;;30.30;21.15;;;;;;;16.15;100.00;101918.50;4957424;28;20031;-78
2021/10/18 11:25:47;;;;;;;29.27;20.70;;;;;;;16.77;100.00;101912.69;4957422;28;20038;-78
2021/10/18 11:28:33;;;;;;;32.88;23.13;;;;;;;16.54;100.00;101915.00;4942444;29;20121;-78
2021/10/18 11:31:23;;;;;;;30.55;22.38;;;;;;;16.26;100.00;101911.19;4942361;29;20031;-77
2021/10/18 11:34:15;;;;;;;31.20;22.20;;;;;;;16.43;100.00;101909.94;4943736;28;20101;-78
2021/10/18 11:37:01;;;;;;;31.73;22.02;;;;;;;16.42;100.00;101902.94;4956968;28;20090;-78
2021/10/18 11:39:47;;;;;;;30.40;22.10;;;;;;;16.18;100.00;101898.13;4942477;29;20031;-78
2021/10/18 11:42:33;;;;;;;36.20;23.75;;;;;;;15.65;100.00;101900.13;4956703;28;20034;-78
2021/10/18 11:45:21;;;;;;;32.08;22.67;;;;;;;15.68;100.00;101903.63;4957128;28;20032;-80
2021/10/18 11:48:13;;;;;;;31.25;23.75;;;;;;;16.06;100.00;101905.44;4955916;29;20039;-78
2021/10/18 11:51:01;;;;;;;32.15;22.23;;;;;;;16.71;100.00;101897.81;4955863;28;20472;-78
2021/10/18 11:53:53;;;;;;;30.02;21.35;;;;;;;16.89;100.00;101893.88;4956170;28;20031;-78
2021/10/18 11:56:38;;;;;;;28.52;20.65;;;;;;;16.51;100.00;101886.00;4958216;28;20097;-78
2021/10/18 11:59:25;;;;;;;32.10;20.38;;;;;;;16.77;100.00;101883.56;4959824;28;20020;-78
2021/10/18 12:02:24;;;;;;;30.17;20.42;;;;;;;16.44;100.00;101893.16;4960648;28;20035;-78
2021/10/18 12:05:10;;;;;;;25.73;18.67;;;;;;;16.62;100.00;101889.22;4961084;28;20412;-77
2021/10/18 12:07:55;;;;;;;27.58;19.48;;;;;;;17.35;100.00;101875.88;4959846;28;20038;-78
2021/10/18 12:10:43;;;;;;;22.83;17.13;;;;;;;17.19;100.00;101874.53;4960029;28;20066;-79
2021/10/18 12:13:34;;;;;;;21.45;15.90;;;;;;;17.24;100.00;101875.31;4945255;29;20019;-78
2021/10/18 12:16:22;;;;;;;21.60;15.27;;;;;;;17.38;100.00;101874.03;4959737;28;20389;-80
2021/10/18 12:19:08;;;;;;;23.30;16.10;;;;;;;16.53;100.00;101863.00;4945356;29;20039;-78
2021/10/18 12:21:54;;;;;;;19.40;14.98;;;;;;;16.89;100.00;101867.38;4959959;28;20038;-79
2021/10/18 12:24:40;;;;;;;20.50;15.25;;;;;;;16.15;100.00;101865.63;4960971;28;20467;-76
2021/10/18 12:27:27;;;;;;;21.40;14.88;;;;;;;16.67;100.00;101866.16;4946604;28;20042;-74
2021/10/18 12:30:36;;;;;;;19.17;13.98;;;;;;;16.01;100.00;101867.69;4960213;28;20109;-77
2021/10/18 12:33:31;;;;;;;17.05;13.18;;;;;;;16.32;100.00;101869.59;4946111;28;20031;-75
2021/10/18 12:36:22;;;;;;;17.00;13.18;;;;;;;16.40;100.00;101866.81;4947998;28;20046;-75
2021/10/18 12:39:11;;;;;;;18.25;13.25;;;;;;;16.49;100.00;101872.78;4960118;28;20023;-82
2021/10/18 12:41:56;;;;;;;17.98;13.20;;;;;;;16.57;100.00;101864.66;4946823;28;20101;-75
2021/10/18 12:44:45;;;;;;;18.48;14.55;;;;;;;16.79;100.00;101869.41;4944538;29;20472;-73
2021/10/18 12:47:32;;;;;;;18.17;12.73;;;;;;;16.83;100.00;101876.34;4958651;28;20122;-74
2021/10/18 12:50:24;;;;;;;18.70;12.70;;;;;;;16.95;100.00;101867.22;4958495;28;20023;-75
2021/10/18 12:53:12;;;;;;;18.67;12.80;;;;;;;16.54;100.00;101875.31;4960119;28;20038;-74
2021/10/18 12:55:58;;;;;;;17.48;12.82;;;;;;;16.42;100.00;101868.53;4944411;29;20420;-75
2021/10/18 12:58:44;;;;;;;20.05;12.95;;;;;;;16.41;100.00;101872.09;4959052;28;20329;-75
2021/10/18 13:01:29;;;;;;;21.10;14.40;;;;;;;16.41;100.00;101884.44;4958996;28;20027;-74
2021/10/18 13:04:19;;;;;;;18.65;13.70;;;;;;;16.50;100.00;101882.47;4944480;29;20031;-75
2021/10/18 13:07:04;;;;;;;18.88;14.30;;;;;;;16.48;100.00;101894.84;4944406;28;20034;-73
2021/10/18 13:09:50;;;;;;;20.70;14.70;;;;;;;16.53;100.00;101878.88;4958275;28;20073;-75
2021/10/18 13:12:36;;;;;;;21.70;15.32;;;;;;;16.39;100.00;101894.16;4959648;28;20126;-75
2021/10/18 13:15:22;;;;;;;21.40;15.52;;;;;;;16.13;100.00;101888.56;4945781;28;20055;-75
2021/10/18 13:18:11;;;;;;;19.38;14.70;;;;;;;16.34;100.00;101891.59;4944921;28;20027;-75
2021/10/18 13:21:00;;;;;;;21.30;15.02;;;;;;;16.15;100.00;101892.06;4957861;28;20031;-73
2021/10/18 13:23:45;;;;;;;27.48;16.50;;;;;;;16.11;100.00;101893.88;4958281;29;20039;-74
2021/10/18 13:26:31;;;;;;;21.83;15.60;;;;;;;15.81;100.00;101897.19;4943859;29;20105;-74
2021/10/18 13:29:17;;;;;;;25.65;16.90;;;;;;;15.76;100.00;101896.41;4959657;28;20027;-74
2021/10/18 13:32:04;;;;;;;25.23;16.65;;;;;;;15.88;100.00;101897.91;4958778;28;20074;-74
2021/10/18 13:34:50;;;;;;;23.17;14.65;;;;;;;15.86;100.00;101899.72;4958386;28;20023;-74
2021/10/18 13:37:36;;;;;;;25.48;15.77;;;;;;;15.89;100.00;101902.28;4958394;28;20082;-74
2021/10/18 13:40:25;;;;;;;23.67;14.55;;;;;;;15.83;100.00;101903.28;4958341;28;20077;-74